Time;durP1;ratioP1;P1;durP2;ratioP2;P2;SDS_P1;SDS_P2;PMS_P1;PMS_P2;Temp;Humidity;BMP_temperature;BMP_pressure;BME280_temperature;BME280_humidity;BME280_pressure;Samples;Min_cycle;Max_cycle;Signal;HPM_P1;HPM_P2
2022/06/09 00:00:57;;;;;;;1.75;0.63;;;;;;;16.98;66.98;96698.56;4932418;28;20267;-84
2022/06/09 00:03:28;;;;;;;1.42;0.80;;;;;;;16.98;66.60;96709.06;4946294;28;20239;-84
2022/06/09 00:05:53;;;;;;;1.20;0.65;;;;;;;17.10;66.54;96714.59;4968270;28;20153;-84
2022/06/09 00:08:19;;;;;;;1.75;0.95;;;;;;;17.08;66.40;96713.34;4952868;28;20202;-84
2022/06/09 00:10:59;;;;;;;1.35;0.80;;;;;;;16.92;66.83;96721.56;4953047;28;20669;-84
2022/06/09 00:13:24;;;;;;;3.63;1.13;;;;;;;17.04;66.81;96721.81;4969788;28;20103;-84
2022/06/09 00:15:50;;;;;;;1.10;0.82;;;;;;;17.04;67.15;96718.41;4936693;28;20105;-84
2022/06/09 00:18:15;;;;;;;2.13;0.90;;;;;;;16.97;66.78;96712.78;4935970;28;20760;-84
2022/06/09 00:20:41;;;;;;;2.25;0.90;;;;;;;17.01;66.74;96717.16;4937184;28;20246;-84
2022/06/09 00:23:06;;;;;;;1.30;0.98;;;;;;;16.99;66.76;96716.66;4969419;28;20287;-84
2022/06/09 00:25:35;;;;;;;3.80;1.00;;;;;;;17.00;67.29;96731.38;4969048;28;20609;-85
2022/06/09 00:28:00;;;;;;;2.80;1.00;;;;;;;17.04;67.01;96727.06;4975873;28;20150;-85
2022/06/09 00:30:25;;;;;;;3.03;1.63;;;;;;;16.93;66.92;96727.59;4953247;28;20275;-84
2022/06/09 00:32:51;;;;;;;5.10;1.25;;;;;;;16.91;67.13;96716.59;4946713;28;20608;-84
2022/06/09 00:35:16;;;;;;;2.53;1.75;;;;;;;16.99;66.97;96737.72;4935998;28;20781;-84
2022/06/09 00:37:42;;;;;;;2.67;1.02;;;;;;;16.98;67.25;96733.53;4953142;28;20289;-84
2022/06/09 00:40:09;;;;;;;2.65;1.20;;;;;;;16.89;67.34;96731.91;4953009;28;20507;-84
2022/06/09 00:42:35;;;;;;;3.10;1.10;;;;;;;16.94;67.33;96735.19;4941075;28;20197;-84
2022/06/09 00:45:20;;;;;;;3.05;1.23;;;;;;;16.72;67.45;96735.88;4930727;28;20226;-84
2022/06/09 00:47:46;;;;;;;1.48;1.30;;;;;;;16.89;67.13;96745.81;4933798;28;20783;-85
2022/06/09 00:50:16;;;;;;;3.20;1.23;;;;;;;16.79;66.94;96753.88;4952860;28;20186;-84
2022/06/09 00:52:46;;;;;;;3.90;1.70;;;;;;;16.82;66.97;96755.94;4975802;28;20687;-84
2022/06/09 00:55:14;;;;;;;1.55;1.42;;;;;;;16.87;67.20;96762.97;4934943;28;20715;-84
2022/06/09 00:58:03;;;;;;;3.33;1.60;;;;;;;16.66;68.07;96771.25;4968564;28;20363;-85
2022/06/09 01:00:34;;;;;;;4.53;2.00;;;;;;;16.81;67.21;96772.78;4950771;28;20291;-84
2022/06/09 01:03:00;;;;;;;5.32;2.00;;;;;;;16.95;67.29;96768.31;4934727;28;20214;-84
2022/06/09 01:05:30;;;;;;;3.67;1.75;;;;;;;16.90;66.88;96771.06;4951842;28;20265;-85
2022/06/09 01:07:59;;;;;;;6.63;2.13;;;;;;;16.91;67.22;96769.19;4936235;28;20281;-84
2022/06/09 01:10:27;;;;;;;4.90;1.80;;;;;;;16.95;67.64;96772.81;4936594;28;20154;-84
2022/06/09 01:12:53;;;;;;;4.35;1.88;;;;;;;16.98;67.55;96778.25;4953356;28;20199;-84
2022/06/09 01:15:21;;;;;;;3.75;1.98;;;;;;;16.95;67.44;96775.44;4952320;28;20214;-84
2022/06/09 01:18:02;;;;;;;3.80;1.90;;;;;;;16.89;67.46;96780.00;4967980;28;20739;-85
2022/06/09 01:20:33;;;;;;;5.78;2.20;;;;;;;16.98;67.14;96772.19;4975712;28;20279;-85
2022/06/09 01:23:02;;;;;;;5.72;2.38;;;;;;;17.03;67.23;96769.44;4969082;28;20219;-84
2022/06/09 01:25:33;;;;;;;2.92;2.17;;;;;;;16.85;67.05;96773.78;4963119;28;20185;-85
2022/06/09 01:28:25;;;;;;;2.75;1.50;;;;;;;16.78;66.98;96774.16;4972557;28;20281;-84
2022/06/09 01:31:39;;;;;;;2.47;1.83;;;;;;;16.71;66.93;96772.97;4975591;28;20244;-84
2022/06/09 01:34:26;;;;;;;2.75;1.98;;;;;;;16.81;66.16;96775.41;4908625;28;20213;-84
2022/06/09 01:37:02;;;;;;;2.95;2.10;;;;;;;16.67;66.23;96767.53;4968473;28;20618;-84
2022/06/09 01:39:29;;;;;;;3.70;2.38;;;;;;;16.61;66.92;96769.50;4935953;28;20206;-84
2022/06/09 01:41:54;;;;;;;5.97;2.50;;;;;;;16.59;66.93;96769.00;4935785;28;20353;-84
2022/06/09 01:44:20;;;;;;;4.55;2.20;;;;;;;16.58;66.81;96777.94;4935412;28;20361;-84
2022/06/09 01:46:48;;;;;;;3.65;2.47;;;;;;;16.55;67.08;96768.00;4958574;28;20188;-83
2022/06/09 01:49:18;;;;;;;5.78;2.70;;;;;;;16.40;66.97;96768.31;4952419;28;20236;-84
2022/06/09 01:51:45;;;;;;;3.17;1.52;;;;;;;16.48;66.65;96762.38;4952242;28;20198;-84
2022/06/09 01:54:18;;;;;;;4.10;1.92;;;;;;;16.26;66.77;96763.84;4951382;28;20239;-84
2022/06/09 01:56:48;;;;;;;3.97;2.25;;;;;;;16.33;66.72;96768.72;4968889;28;20365;-84
2022/06/09 01:59:18;;;;;;;4.32;2.40;;;;;;;16.27;66.69;96769.88;4975023;28;20199;-84
2022/06/09 02:02:16;;;;;;;2.42;2.17;;;;;;;16.09;67.35;96768.88;4956752;28;20168;-84
2022/06/09 02:04:46;;;;;;;6.20;2.97;;;;;;;16.27;67.12;96769.88;4967391;28;20215;-84
2022/06/09 02:07:12;;;;;;;7.72;2.75;;;;;;;16.35;67.24;96758.69;4958146;28;20628;-84
2022/06/09 02:09:38;;;;;;;6.75;2.58;;;;;;;16.40;67.45;96768.31;4968241;28;20329;-84
2022/06/09 02:12:10;;;;;;;3.55;2.17;;;;;;;16.35;67.50;96773.66;4951649;28;20354;-84
2022/06/09 02:14:37;;;;;;;3.88;2.55;;;;;;;16.34;67.18;96769.50;4935229;28;20630;-84
2022/06/09 02:17:04;;;;;;;4.10;2.42;;;;;;;16.34;67.57;96777.38;4967684;28;20186;-84
2022/06/09 02:19:30;;;;;;;3.65;2.15;;;;;;;16.40;67.21;96776.19;4951879;28;20210;-84
2022/06/09 02:21:56;;;;;;;3.85;2.25;;;;;;;16.38;67.61;96786.22;4935467;28;20755;-84
2022/06/09 02:24:21;;;;;;;5.43;2.10;;;;;;;16.39;67.41;96785.94;4951211;28;20206;-84
2022/06/09 02:26:47;;;;;;;5.57;2.40;;;;;;;16.45;67.20;96783.97;4957502;28;20207;-84
2022/06/09 02:29:14;;;;;;;4.10;2.42;;;;;;;16.39;67.40;96785.94;4951098;28;20171;-84
2022/06/09 02:31:40;;;;;;;4.38;2.33;;;;;;;16.39;67.27;96783.31;4969269;28;20093;-84
2022/06/09 02:34:05;;;;;;;4.72;2.30;;;;;;;16.36;66.94;96783.09;4967597;28;20210;-84
2022/06/09 02:36:31;;;;;;;4.40;2.55;;;;;;;16.38;67.07;96786.22;4934918;28;20168;-84
2022/06/09 02:38:56;;;;;;;6.28;2.00;;;;;;;16.39;66.94;96788.56;4951113;28;20289;-85
2022/06/09 02:41:22;;;;;;;5.07;2.30;;;;;;;16.33;67.13;96786.31;4967658;28;20345;-84
2022/06/09 02:43:47;;;;;;;3.17;2.00;;;;;;;16.22;67.41;96791.75;4967609;28;20292;-84
2022/06/09 02:46:13;;;;;;;3.92;1.90;;;;;;;16.22;67.27;96781.25;4967384;28;20217;-83
2022/06/09 02:48:38;;;;;;;3.80;1.52;;;;;;;16.18;66.91;96775.03;4952796;28;20296;-84
2022/06/09 02:51:34;;;;;;;3.42;1.42;;;;;;;15.95;67.57;96778.56;4967257;28;20249;-84
2022/06/09 02:54:05;;;;;;;4.38;2.20;;;;;;;15.99;67.28;96787.41;4938246;28;20538;-84
2022/06/09 02:56:31;;;;;;;3.38;1.77;;;;;;;16.02;66.86;96784.22;4973720;28;20194;-84
2022/06/09 02:58:57;;;;;;;3.28;2.25;;;;;;;16.06;67.07;96785.22;4931271;28;20682;-84
2022/06/09 03:01:23;;;;;;;2.80;1.80;;;;;;;15.96;66.36;96790.66;4939712;28;20288;-84
2022/06/09 03:03:49;;;;;;;3.05;1.67;;;;;;;15.87;66.66;96782.66;4933895;28;20252;-84
2022/06/09 03:06:14;;;;;;;3.67;1.70;;;;;;;15.82;66.77;96794.00;4950693;28;20202;-84
2022/06/09 03:08:40;;;;;;;2.83;1.42;;;;;;;15.76;66.92;96786.50;4956850;28;20328;-84
2022/06/09 03:11:06;;;;;;;5.03;1.55;;;;;;;15.72;67.08;96788.88;4934507;28;20210;-84
2022/06/09 03:13:32;;;;;;;4.28;2.30;;;;;;;15.74;66.99;96790.16;4934067;28;20199;-84
2022/06/09 03:15:58;;;;;;;3.60;1.90;;;;;;;15.73;66.98;96788.59;4950586;28;20628;-84
2022/06/09 03:18:24;;;;;;;3.22;1.77;;;;;;;15.68;66.66;96795.78;4934030;28;20206;-84
2022/06/09 03:20:49;;;;;;;3.38;1.90;;;;;;;15.61;67.13;96790.09;4966463;28;20751;-83
2022/06/09 03:23:15;;;;;;;4.47;2.38;;;;;;;15.59;67.70;96787.75;4933902;28;20291;-85
2022/06/09 03:25:42;;;;;;;4.05;2.38;;;;;;;15.62;67.48;96795.06;4937522;28;20194;-84
2022/06/09 03:28:08;;;;;;;5.22;3.10;;;;;;;15.63;67.78;96799.25;4954251;28;20683;-84
2022/06/09 03:30:33;;;;;;;6.55;2.80;;;;;;;15.56;67.61;96793.59;4950095;28;20202;-83
2022/06/09 03:32:59;;;;;;;5.80;3.17;;;;;;;15.63;67.13;96809.75;4939974;28;20293;-84
2022/06/09 03:35:25;;;;;;;5.22;3.20;;;;;;;15.58;67.48;96811.69;4949636;28;20272;-84
2022/06/09 03:37:50;;;;;;;7.82;3.70;;;;;;;15.64;67.75;96811.31;4936879;28;20164;-84
2022/06/09 03:40:18;;;;;;;4.53;3.20;;;;;;;15.60;67.81;96807.69;4950471;28;20649;-83
2022/06/09 03:42:44;;;;;;;5.40;3.42;;;;;;;15.65;68.05;96805.00;4954378;28;20632;-83
2022/06/09 03:45:11;;;;;;;7.90;4.75;;;;;;;15.63;68.25;96807.13;4949717;28;20075;-83
2022/06/09 03:47:36;;;;;;;6.30;4.28;;;;;;;15.68;68.31;96807.06;4930436;28;20192;-83
2022/06/09 03:50:02;;;;;;;5.35;4.28;;;;;;;15.80;68.17;96821.59;4933618;28;20456;-84
2022/06/09 03:52:27;;;;;;;8.30;4.60;;;;;;;15.89;68.02;96825.16;4939901;28;20218;-84
2022/06/09 03:54:53;;;;;;;8.18;4.68;;;;;;;15.88;68.31;96821.72;4933359;28;20195;-84
2022/06/09 03:57:18;;;;;;;7.97;5.20;;;;;;;15.93;68.00;96830.59;4949663;28;20375;-83
2022/06/09 03:59:44;;;;;;;8.13;5.03;;;;;;;15.98;67.63;96828.66;4967450;28;20281;-84
2022/06/09 04:02:09;;;;;;;7.00;4.82;;;;;;;15.87;67.63;96830.69;4949509;28;20164;-83
2022/06/09 04:04:35;;;;;;;8.77;5.45;;;;;;;15.92;67.75;96835.06;4932958;28;20252;-83
2022/06/09 04:07:01;;;;;;;10.07;5.45;;;;;;;15.90;67.85;96843.25;4939829;28;20203;-85
2022/06/09 04:09:26;;;;;;;7.85;4.80;;;;;;;15.93;67.18;96848.97;4954260;28;20190;-84
2022/06/09 04:11:51;;;;;;;8.18;4.57;;;;;;;15.91;67.36;96847.41;4935303;28;20682;-84
2022/06/09 04:14:17;;;;;;;7.95;4.53;;;;;;;15.88;67.21;96847.97;4956175;28;20175;-84
2022/06/09 04:16:46;;;;;;;10.32;4.95;;;;;;;15.88;67.16;96849.81;4949346;28;20610;-84
2022/06/09 04:19:15;;;;;;;7.93;4.05;;;;;;;15.87;67.59;96849.06;4933752;28;20476;-84
2022/06/09 04:21:40;;;;;;;9.38;4.82;;;;;;;15.96;67.11;96859.69;4949321;28;20142;-83
2022/06/09 04:24:06;;;;;;;9.82;5.07;;;;;;;15.91;67.91;96857.91;4949157;28;20214;-84
2022/06/09 04:26:35;;;;;;;8.95;4.85;;;;;;;15.99;67.44;96863.56;4932951;28;20360;-85
2022/06/09 04:29:00;;;;;;;6.93;4.22;;;;;;;16.10;67.30;96867.59;4949444;28;20662;-84
2022/06/09 04:31:26;;;;;;;6.70;4.32;;;;;;;16.12;67.56;96865.47;4955790;28;20287;-84
2022/06/09 04:33:52;;;;;;;6.45;4.13;;;;;;;16.19;67.16;96868.50;4932779;28;20180;-84
2022/06/09 04:36:18;;;;;;;5.45;3.92;;;;;;;16.13;67.70;96871.53;4965740;28;20504;-83
2022/06/09 04:38:44;;;;;;;8.13;3.95;;;;;;;16.13;67.75;96872.28;4949347;28;20355;-84
2022/06/09 04:41:11;;;;;;;6.57;3.65;;;;;;;16.18;67.79;96871.44;4955900;28;20202;-85
2022/06/09 04:43:41;;;;;;;6.35;3.35;;;;;;;16.27;67.21;96886.22;4955790;28;20199;-84
2022/06/09 04:46:08;;;;;;;7.70;3.40;;;;;;;16.34;67.39;96885.09;4937007;28;20296;-84
2022/06/09 04:48:34;;;;;;;7.75;3.13;;;;;;;16.36;66.69;96888.97;4961181;28;20309;-84
2022/06/09 04:50:59;;;;;;;8.25;3.42;;;;;;;16.24;66.74;96878.91;4948901;28;20188;-84
2022/06/09 04:53:25;;;;;;;6.53;3.50;;;;;;;16.44;66.49;96888.31;4935382;28;20708;-84
2022/06/09 04:55:51;;;;;;;6.35;3.20;;;;;;;16.44;66.67;96896.19;4953066;28;20557;-84
2022/06/09 04:58:17;;;;;;;8.07;3.13;;;;;;;16.40;65.97;96889.19;4957265;28;20273;-84
2022/06/09 05:00:42;;;;;;;6.03;3.00;;;;;;;16.39;66.11;96903.41;4936891;28;20209;-84
2022/06/09 05:03:17;;;;;;;10.10;3.53;;;;;;;16.23;66.73;96905.50;4935048;28;20206;-84
2022/06/09 05:05:45;;;;;;;9.90;3.53;;;;;;;16.19;66.42;96913.16;4936630;28;20712;-85
2022/06/09 05:08:11;;;;;;;9.40;3.20;;;;;;;16.28;66.04;96908.06;4935453;28;20190;-84
2022/06/09 05:10:38;;;;;;;6.90;3.30;;;;;;;16.27;66.48;96915.13;4951641;28;20421;-84
2022/06/09 05:13:05;;;;;;;8.68;3.50;;;;;;;16.27;66.69;96920.38;4951196;28;20230;-84
2022/06/09 05:15:32;;;;;;;8.00;3.33;;;;;;;16.09;66.24;96908.84;4935859;28;20278;-84
2022/06/09 05:17:58;;;;;;;6.38;3.03;;;;;;;16.18;65.41;96916.09;4935608;28;20276;-85
2022/06/09 05:20:24;;;;;;;5.80;2.92;;;;;;;16.13;65.29;96927.44;4952038;28;20203;-85
2022/06/09 05:22:49;;;;;;;9.32;3.50;;;;;;;16.12;65.90;96925.09;4941956;28;20666;-84
2022/06/09 05:25:15;;;;;;;7.10;2.80;;;;;;;16.00;66.18;96930.78;4936005;28;20295;-84
2022/06/09 05:27:41;;;;;;;7.63;2.72;;;;;;;16.14;65.59;96922.97;4958592;28;20276;-84
2022/06/09 05:30:11;;;;;;;4.28;2.45;;;;;;;16.12;65.35;96946.88;4940692;28;20221;-84
2022/06/09 05:32:37;;;;;;;10.30;3.22;;;;;;;16.09;65.39;96952.69;4951764;28;20279;-84
2022/06/09 05:35:04;;;;;;;8.07;2.13;;;;;;;16.14;64.18;96950.00;4939718;28;20293;-83
2022/06/09 05:44:50;;;;;;;6.78;2.35;;;;;;;16.03;65.70;96959.13;4941034;28;20124;-84
2022/06/09 05:45:43;;;;;;;6.88;2.30;;;;;;;16.06;65.01;96969.81;4968125;28;20407;-84
2022/06/09 05:48:08;;;;;;;5.28;2.88;;;;;;;16.09;65.33;96968.47;4934694;28;20282;-84
2022/06/09 05:50:34;;;;;;;7.22;2.83;;;;;;;16.03;64.37;96962.50;4942452;28;20281;-85
2022/06/09 05:52:59;;;;;;;4.10;2.33;;;;;;;15.97;64.29;96966.28;4951630;28;20301;-85
2022/06/09 05:55:25;;;;;;;6.75;2.72;;;;;;;15.98;64.18;96967.84;4952665;28;20171;-84
2022/06/09 05:57:50;;;;;;;8.43;2.85;;;;;;;15.86;65.62;96972.72;4952126;28;20211;-84
2022/06/09 06:00:16;;;;;;;5.40;2.78;;;;;;;15.85;64.78;96976.41;4968468;28;20214;-83
2022/06/09 06:02:42;;;;;;;5.90;2.70;;;;;;;15.96;64.38;96990.19;4936350;28;20640;-84
2022/06/09 06:06:33;;;;;;;9.02;2.95;;;;;;;15.87;63.74;96997.94;4967869;28;20738;-84
2022/06/09 06:07:53;;;;;;;5.57;2.00;;;;;;;15.90;63.71;96992.91;4968693;28;20231;-85
2022/06/09 06:10:18;;;;;;;6.80;2.38;;;;;;;15.87;63.52;97000.56;4951701;28;20244;-82
2022/06/09 06:12:43;;;;;;;6.07;2.70;;;;;;;15.89;63.51;97007.06;4952289;28;20199;-83
2022/06/09 06:15:09;;;;;;;6.50;2.53;;;;;;;15.88;63.64;97015.22;4962721;28;20281;-84
2022/06/09 06:17:35;;;;;;;6.28;2.53;;;;;;;15.76;64.07;97012.25;4953847;28;20210;-84
2022/06/09 06:20:01;;;;;;;6.65;2.83;;;;;;;15.76;63.66;97012.25;4952152;28;20645;-83
2022/06/09 06:22:26;;;;;;;6.18;2.70;;;;;;;15.74;64.21;97018.50;4958533;28;20206;-83
2022/06/09 06:24:52;;;;;;;6.40;2.28;;;;;;;15.86;63.73;97015.50;4952112;28;20288;-82
2022/06/09 06:27:19;;;;;;;5.63;2.65;;;;;;;15.85;63.11;97027.09;4951545;28;20214;-84
2022/06/09 06:29:44;;;;;;;6.55;3.28;;;;;;;15.89;63.30;97027.31;4935534;28;20709;-85
2022/06/09 06:32:10;;;;;;;6.68;2.85;;;;;;;15.82;63.24;97032.91;4951320;28;20165;-83
2022/06/09 06:34:35;;;;;;;8.48;2.85;;;;;;;15.77;64.10;97035.59;4950357;28;20203;-83
2022/06/09 06:37:01;;;;;;;6.72;3.38;;;;;;;15.81;63.64;97041.81;4966716;28;20199;-83
2022/06/09 06:39:26;;;;;;;5.38;2.40;;;;;;;15.89;63.65;97035.19;4952161;28;20682;-83
2022/06/09 06:41:51;;;;;;;5.40;2.90;;;;;;;15.94;63.75;97040.38;4955235;28;20206;-84
2022/06/09 06:44:17;;;;;;;4.95;2.67;;;;;;;15.99;63.35;97039.50;4957579;28;20105;-83
2022/06/09 06:46:42;;;;;;;6.57;2.72;;;;;;;15.99;63.55;97042.94;4956936;28;20278;-84
2022/06/09 06:49:08;;;;;;;4.88;2.60;;;;;;;16.00;63.57;97048.97;4968838;28;20253;-83
2022/06/09 06:51:35;;;;;;;7.60;3.00;;;;;;;16.01;64.16;97050.53;4933932;28;20640;-83
2022/06/09 06:54:04;;;;;;;6.75;2.80;;;;;;;16.01;63.97;97043.44;4943796;28;20168;-83
2022/06/09 06:56:31;;;;;;;8.40;3.00;;;;;;;16.06;64.40;97045.22;4931867;28;20211;-83
2022/06/09 06:58:56;;;;;;;4.78;2.63;;;;;;;16.12;64.16;97051.94;4950136;28;20164;-82
2022/06/09 07:01:21;;;;;;;5.50;3.30;;;;;;;16.22;63.85;97057.06;4940222;28;20625;-82
2022/06/09 07:03:47;;;;;;;6.88;2.72;;;;;;;16.29;63.66;97067.22;4932921;28;20429;-83
2022/06/09 07:06:13;;;;;;;12.23;2.95;;;;;;;16.34;63.31;97064.53;4950112;28;20210;-82
2022/06/09 07:08:38;;;;;;;7.10;2.85;;;;;;;16.43;63.01;97069.94;4943775;28;20179;-84
2022/06/09 07:11:05;;;;;;;7.75;2.55;;;;;;;16.35;62.55;97073.97;4939245;28;20292;-82
2022/06/09 07:13:31;;;;;;;5.72;2.90;;;;;;;16.45;63.49;97078.31;4948364;28;20750;-82
2022/06/09 07:15:56;;;;;;;6.88;2.50;;;;;;;16.55;63.32;97080.78;4947390;28;20352;-82
2022/06/09 07:18:22;;;;;;;5.35;2.33;;;;;;;16.60;62.63;97080.72;4948202;28;20164;-81
2022/06/09 07:20:47;;;;;;;7.10;2.67;;;;;;;16.66;62.07;97087.47;4948977;28;20202;-82
2022/06/09 07:23:12;;;;;;;4.50;2.58;;;;;;;16.70;62.30;97086.91;4964665;28;20191;-82
2022/06/09 07:25:38;;;;;;;8.35;2.33;;;;;;;16.75;61.94;97084.19;4967307;28;20326;-83
2022/06/09 07:28:04;;;;;;;7.95;2.58;;;;;;;16.64;62.40;97079.09;4964921;28;20218;-81
2022/06/09 07:30:29;;;;;;;5.15;1.73;;;;;;;16.76;61.85;97085.75;4964732;28;20387;-81
2022/06/09 07:32:55;;;;;;;3.95;1.95;;;;;;;16.74;60.88;97087.88;4964426;28;20226;-81
2022/06/09 07:35:24;;;;;;;4.07;1.85;;;;;;;16.70;61.31;97087.66;4971434;28;20277;-82
2022/06/09 07:37:50;;;;;;;4.15;1.90;;;;;;;16.79;60.77;97079.91;4964958;28;20191;-82
2022/06/09 07:40:15;;;;;;;5.57;2.10;;;;;;;16.78;60.46;97084.41;4946288;28;20091;-82
2022/06/09 07:42:41;;;;;;;8.48;2.15;;;;;;;16.79;61.26;97093.06;4964565;28;20650;-82
2022/06/09 07:45:09;;;;;;;6.63;2.90;;;;;;;16.77;61.55;97098.59;4947541;28;20266;-82
2022/06/09 07:47:35;;;;;;;7.55;1.98;;;;;;;16.80;61.77;97098.03;4964152;28;20103;-81
2022/06/09 07:50:00;;;;;;;8.07;2.15;;;;;;;16.83;61.74;97091.44;4947953;28;20648;-81
2022/06/09 07:52:26;;;;;;;4.50;1.80;;;;;;;16.85;61.72;97095.34;4950430;28;20198;-81
2022/06/09 07:54:52;;;;;;;5.75;2.58;;;;;;;16.75;62.35;97098.13;4961006;28;20210;-80
2022/06/09 07:57:17;;;;;;;4.82;1.80;;;;;;;16.88;61.58;97098.47;4938079;28;20172;-81
2022/06/09 07:59:43;;;;;;;6.40;2.20;;;;;;;16.91;61.54;97097.91;4964210;28;20206;-81
2022/06/09 08:02:10;;;;;;;4.78;2.75;;;;;;;16.95;61.80;97099.69;4947704;28;20255;-80
2022/06/09 08:04:36;;;;;;;8.45;2.25;;;;;;;17.22;61.28;97095.56;4944589;28;20179;-80
2022/06/09 08:07:02;;;;;;;5.47;1.98;;;;;;;17.39;60.49;97098.44;4947915;28;20645;-80
2022/06/09 08:09:28;;;;;;;6.68;2.17;;;;;;;17.54;60.02;97096.59;4964159;28;20197;-80
2022/06/09 08:11:54;;;;;;;5.93;2.30;;;;;;;17.62;59.86;97106.47;4969430;28;20234;-79
2022/06/09 08:14:19;;;;;;;7.05;1.88;;;;;;;17.62;59.74;97101.19;4965151;28;20210;-80
2022/06/09 08:16:45;;;;;;;4.60;2.15;;;;;;;17.64;58.21;97104.31;4947913;28;20226;-80
2022/06/09 08:19:10;;;;;;;5.18;2.40;;;;;;;17.65;58.89;97110.34;4947832;28;20310;-79
2022/06/09 08:21:36;;;;;;;4.10;1.83;;;;;;;17.62;58.76;97117.00;4967766;28;20766;-80
2022/06/09 08:24:01;;;;;;;5.07;2.47;;;;;;;17.65;57.67;97112.97;4947437;28;20285;-80
2022/06/09 08:26:27;;;;;;;7.55;2.95;;;;;;;17.62;58.29;97121.50;4953162;28;20339;-79
2022/06/09 08:28:53;;;;;;;5.10;2.05;;;;;;;17.71;58.44;97123.13;4939466;28;20182;-80
2022/06/09 08:31:18;;;;;;;5.30;2.63;;;;;;;17.57;57.54;97123.13;4951897;28;20313;-80
2022/06/09 08:33:44;;;;;;;4.88;1.73;;;;;;;17.68;57.60;97130.84;4951555;28;20827;-79
2022/06/09 08:36:10;;;;;;;6.20;2.10;;;;;;;17.75;56.82;97120.69;4970794;28;20218;-79
2022/06/09 08:38:35;;;;;;;6.40;1.90;;;;;;;17.78;56.82;97120.88;4942611;28;20627;-78
2022/06/09 08:41:19;;;;;;;4.93;2.47;;;;;;;17.93;56.93;97127.00;4968103;28;20309;-79
2022/06/09 08:44:10;;;;;;;6.55;1.85;;;;;;;17.63;57.64;97121.16;4971857;28;20267;-78
2022/06/09 08:46:45;;;;;;;4.03;2.38;;;;;;;17.92;56.39;97125.41;4945593;28;20194;-79
2022/06/09 08:49:30;;;;;;;;;;;;;;;17.93;56.21;97124.34;4967656;28;20198;-79
2022/06/09 08:52:00;;;;;;;4.30;1.45;;;;;;;18.38;56.21;97137.69;4969495;28;20215;-79
2022/06/09 08:54:35;;;;;;;5.88;1.90;;;;;;;18.44;55.46;97139.16;4968618;28;20373;-79
2022/06/09 08:57:04;;;;;;;4.90;1.70;;;;;;;18.70;54.94;97141.22;4952107;28;20305;-79
2022/06/09 08:59:37;;;;;;;6.65;1.90;;;;;;;18.72;54.79;97144.34;4967083;28;20163;-78
2022/06/09 09:02:27;;;;;;;3.45;1.48;;;;;;;18.44;55.08;97146.25;4967473;28;20842;-78
2022/06/09 09:05:23;;;;;;;7.07;2.10;;;;;;;18.24;55.20;97153.50;4964257;28;20280;-78
2022/06/09 09:07:50;;;;;;;5.25;2.22;;;;;;;18.40;55.53;97161.88;4967381;28;20273;-78
2022/06/09 09:10:18;;;;;;;3.25;1.65;;;;;;;18.36;55.55;97160.16;4953056;28;20824;-78
2022/06/09 09:13:02;;;;;;;5.72;1.85;;;;;;;18.29;55.83;97165.81;4973186;28;20251;-78
2022/06/09 09:15:27;;;;;;;6.60;2.20;;;;;;;18.35;58.41;97164.63;4950174;28;20268;-78
2022/06/09 09:18:18;;;;;;;7.25;2.35;;;;;;;18.23;58.65;97170.41;4968446;28;20201;-77
2022/06/09 09:21:02;;;;;;;4.47;1.88;;;;;;;18.50;56.52;97172.22;4969504;28;20183;-77
2022/06/09 09:23:30;;;;;;;6.43;1.83;;;;;;;18.65;55.22;97178.25;4949073;28;20774;-78
2022/06/09 09:26:15;;;;;;;4.55;1.80;;;;;;;18.49;56.13;97175.16;4950862;28;20254;-77
2022/06/09 09:28:51;;;;;;;5.32;2.00;;;;;;;18.64;55.57;97187.25;4961323;28;20211;-77
2022/06/09 09:31:44;;;;;;;4.95;1.90;;;;;;;18.49;55.45;97183.84;4974446;28;20280;-77
2022/06/09 09:34:16;;;;;;;7.28;2.40;;;;;;;18.57;55.42;97182.38;4965782;28;20267;-77
2022/06/09 09:36:44;;;;;;;3.72;1.75;;;;;;;18.70;54.69;97183.44;4965812;28;20364;-77
2022/06/09 09:39:18;;;;;;;5.75;2.08;;;;;;;18.78;55.92;97189.84;4958971;28;20700;-77
2022/06/09 09:41:44;;;;;;;5.93;2.37;;;;;;;19.25;53.44;97193.81;4949912;28;20286;-76
2022/06/09 09:44:25;;;;;;;5.38;2.05;;;;;;;19.20;54.38;97201.88;4949090;28;20649;-77
2022/06/09 09:46:58;;;;;;;6.47;2.20;;;;;;;19.29;54.13;97196.66;4949430;28;20329;-77
2022/06/09 09:49:48;;;;;;;4.90;1.42;;;;;;;19.22;55.31;97204.22;4962904;28;20269;-77
2022/06/09 09:52:43;;;;;;;3.47;1.70;;;;;;;19.25;54.24;97206.25;4937482;28;20242;-77
2022/06/09 09:55:49;;;;;;;6.07;1.80;;;;;;;19.32;52.70;97206.59;4934578;28;20362;-77
2022/06/09 09:58:23;;;;;;;5.63;2.03;;;;;;;19.26;53.02;97211.22;4958204;28;20225;-77
2022/06/09 10:01:14;;;;;;;4.00;1.60;;;;;;;19.32;52.68;97208.47;4967905;28;20206;-77
2022/06/09 10:09:38;;;;;;;7.15;1.92;;;;;;;19.61;53.33;97208.81;4972533;28;20168;-77
2022/06/09 10:12:07;;;;;;;6.03;1.83;;;;;;;19.77;52.53;97211.09;4933477;28;20182;-77
2022/06/09 10:14:38;;;;;;;4.25;1.70;;;;;;;19.63;52.50;97217.22;4967166;28;20195;-77
2022/06/09 10:17:09;;;;;;;3.80;1.45;;;;;;;19.86;51.10;97214.59;4961364;28;20290;-77
2022/06/09 10:19:34;;;;;;;5.47;1.80;;;;;;;20.01;51.13;97216.84;4972384;28;20738;-77
2022/06/09 10:22:04;;;;;;;4.13;1.98;;;;;;;19.83;52.23;97212.53;4948699;28;20163;-76
2022/06/09 10:24:56;;;;;;;8.43;2.20;;;;;;;20.00;52.79;97215.25;4948026;28;20247;-77
2022/06/09 10:27:28;;;;;;;3.67;1.50;;;;;;;20.35;51.06;97215.38;4965671;28;20365;-77
2022/06/09 10:30:06;;;;;;;3.80;1.48;;;;;;;20.46;50.86;97220.38;4951985;28;20210;-77
2022/06/09 10:32:39;;;;;;;3.88;1.20;;;;;;;20.24;48.69;97223.88;4972560;28;20256;-77
2022/06/09 10:35:24;;;;;;;4.47;2.05;;;;;;;20.14;49.33;97219.69;4965218;28;20672;-77
2022/06/09 10:37:56;;;;;;;4.88;1.45;;;;;;;20.36;49.12;97221.47;4948774;28;20195;-77
2022/06/09 10:40:44;;;;;;;3.45;1.20;;;;;;;20.32;49.08;97216.00;4933145;28;20595;-78
2022/06/09 10:43:19;;;;;;;4.00;1.50;;;;;;;20.08;50.24;97216.38;4949443;28;20702;-77
2022/06/09 10:45:53;;;;;;;4.95;1.25;;;;;;;20.45;48.64;97221.50;4972981;28;20220;-78
2022/06/09 10:57:23;;;;;;;3.20;1.30;;;;;;;20.36;49.55;97216.94;4956873;28;20210;-78
2022/06/09 10:59:51;;;;;;;6.00;1.52;;;;;;;20.52;50.27;97221.81;4946906;28;20171;-77
2022/06/09 11:02:21;;;;;;;4.95;1.15;;;;;;;20.72;49.24;97223.91;4963838;28;20680;-77
2022/06/09 11:04:48;;;;;;;5.97;2.20;;;;;;;21.11;47.75;97222.22;4961535;28;20187;-78
2022/06/09 11:07:20;;;;;;;5.13;2.05;;;;;;;21.30;45.91;97221.09;4957035;28;20199;-78
2022/06/09 11:10:06;;;;;;;3.35;1.20;;;;;;;21.38;45.98;97232.81;4964953;28;20191;-78
2022/06/09 11:12:57;;;;;;;2.80;1.10;;;;;;;21.62;46.97;97221.72;4970760;28;20245;-78
2022/06/09 11:15:29;;;;;;;2.80;1.25;;;;;;;22.36;45.90;97217.94;4959865;28;20210;-77
2022/06/09 11:18:40;;;;;;;3.40;1.00;;;;;;;22.33;44.72;97215.91;4946784;28;20350;-78
2022/06/09 11:21:16;;;;;;;3.70;1.20;;;;;;;22.15;46.62;97212.50;4962136;28;20662;-77
2022/06/09 11:23:42;;;;;;;5.00;1.23;;;;;;;22.16;45.48;97219.38;4962005;28;20214;-77
2022/06/09 11:26:18;;;;;;;3.58;1.65;;;;;;;21.69;46.29;97214.06;4965761;28;20630;-78
2022/06/09 11:29:11;;;;;;;5.00;1.40;;;;;;;21.51;45.82;97227.34;4962222;28;20766;-77
2022/06/09 11:31:40;;;;;;;4.32;1.20;;;;;;;21.51;44.65;97232.66;4945506;28;20187;-78
2022/06/09 11:34:36;;;;;;;2.50;1.45;;;;;;;21.27;45.02;97232.34;4963326;28;20355;-77
2022/06/09 11:37:11;;;;;;;3.45;1.17;;;;;;;21.47;45.92;97226.44;4960958;28;20198;-77
2022/06/09 11:39:55;;;;;;;4.18;1.35;;;;;;;21.79;47.26;97221.69;4929981;28;20201;-78
2022/06/09 11:42:47;;;;;;;3.90;1.30;;;;;;;21.83;44.06;97229.78;4945231;28;20283;-77
2022/06/09 11:45:32;;;;;;;3.17;1.17;;;;;;;22.03;45.65;97230.97;4958530;28;20288;-77
2022/06/09 11:47:59;;;;;;;;;;;;;;;21.85;45.45;97232.91;4948442;28;20166;-78
2022/06/09 11:50:39;;;;;;;5.93;1.60;;;;;;;21.63;48.17;97234.66;4963423;28;20230;-78
2022/06/09 11:53:05;;;;;;;4.10;1.40;;;;;;;21.66;48.62;97233.25;4930370;28;20773;-78
2022/06/09 11:55:58;;;;;;;4.13;1.60;;;;;;;21.36;49.63;97241.06;4953521;28;20251;-77
2022/06/09 11:58:35;;;;;;;4.30;1.60;;;;;;;20.88;52.65;97245.41;4963755;28;20219;-78
2022/06/09 12:01:19;;;;;;;4.72;1.55;;;;;;;20.78;52.05;97245.69;4962297;28;20210;-77
2022/06/09 12:04:21;;;;;;;6.03;1.77;;;;;;;20.92;53.70;97237.63;4958372;28;20180;-78
2022/06/09 12:06:56;;;;;;;4.22;1.40;;;;;;;20.91;54.72;97236.06;4961148;28;20189;-78
2022/06/09 12:09:35;;;;;;;2.17;1.23;;;;;;;20.77;55.03;97246.81;4961405;28;20753;-79